sensor_id;sensor_type;location;lat;lon;timestamp;temperature;humidity
52963;DHT22;38827;53.024;6.596;2023-07-31T00:00:50;16.40;82.20
52963;DHT22;38827;53.024;6.596;2023-07-31T00:03:19;16.40;82.30
52963;DHT22;38827;53.024;6.596;2023-07-31T00:08:13;16.80;81.60
52963;DHT22;38827;53.024;6.596;2023-07-31T00:10:43;16.30;82.60
52963;DHT22;38827;53.024;6.596;2023-07-31T00:13:08;16.30;83.00
52963;DHT22;38827;53.024;6.596;2023-07-31T00:15:34;16.30;83.10
52963;DHT22;38827;53.024;6.596;2023-07-31T00:18:04;16.20;83.30
52963;DHT22;38827;53.024;6.596;2023-07-31T00:20:30;16.20;83.40
52963;DHT22;38827;53.024;6.596;2023-07-31T00:22:55;16.10;83.60
52963;DHT22;38827;53.024;6.596;2023-07-31T00:25:21;16.10;83.80
52963;DHT22;38827;53.024;6.596;2023-07-31T00:27:47;16.10;83.90
52963;DHT22;38827;53.024;6.596;2023-07-31T00:30:12;16.10;84.10
52963;DHT22;38827;53.024;6.596;2023-07-31T00:32:38;16.00;84.50
52963;DHT22;38827;53.024;6.596;2023-07-31T00:35:04;16.00;84.50
52963;DHT22;38827;53.024;6.596;2023-07-31T00:37:30;16.00;84.50
52963;DHT22;38827;53.024;6.596;2023-07-31T00:39:55;16.00;84.60
52963;DHT22;38827;53.024;6.596;2023-07-31T00:42:21;16.00;84.80
52963;DHT22;38827;53.024;6.596;2023-07-31T00:44:46;16.00;84.90
52963;DHT22;38827;53.024;6.596;2023-07-31T00:47:12;15.90;84.90
52963;DHT22;38827;53.024;6.596;2023-07-31T00:49:38;16.00;85.00
52963;DHT22;38827;53.024;6.596;2023-07-31T00:52:04;15.90;85.20
52963;DHT22;38827;53.024;6.596;2023-07-31T00:54:30;15.90;85.20
52963;DHT22;38827;53.024;6.596;2023-07-31T00:56:56;15.90;85.20
52963;DHT22;38827;53.024;6.596;2023-07-31T00:59:22;15.90;85.20
52963;DHT22;38827;53.024;6.596;2023-07-31T01:01:48;15.90;85.40
52963;DHT22;38827;53.024;6.596;2023-07-31T01:04:14;15.90;85.40
52963;DHT22;38827;53.024;6.596;2023-07-31T01:06:53;15.90;85.20
52963;DHT22;38827;53.024;6.596;2023-07-31T01:09:42;15.90;85.40
52963;DHT22;38827;53.024;6.596;2023-07-31T01:12:09;15.90;85.30
52963;DHT22;38827;53.024;6.596;2023-07-31T01:14:37;15.90;85.60
52963;DHT22;38827;53.024;6.596;2023-07-31T01:17:03;15.90;85.60
52963;DHT22;38827;53.024;6.596;2023-07-31T01:19:29;15.90;85.60
52963;DHT22;38827;53.024;6.596;2023-07-31T01:22:31;15.80;85.80
52963;DHT22;38827;53.024;6.596;2023-07-31T01:25:21;15.90;85.80
52963;DHT22;38827;53.024;6.596;2023-07-31T01:27:59;15.80;85.80
52963;DHT22;38827;53.024;6.596;2023-07-31T01:30:28;15.80;86.00
52963;DHT22;38827;53.024;6.596;2023-07-31T01:32:56;15.80;86.00
52963;DHT22;38827;53.024;6.596;2023-07-31T01:35:23;15.80;86.00
52963;DHT22;38827;53.024;6.596;2023-07-31T01:37:49;15.80;86.20
52963;DHT22;38827;53.024;6.596;2023-07-31T01:40:14;15.80;86.20
52963;DHT22;38827;53.024;6.596;2023-07-31T01:42:40;15.80;86.20
52963;DHT22;38827;53.024;6.596;2023-07-31T01:45:06;15.80;86.30
52963;DHT22;38827;53.024;6.596;2023-07-31T01:47:32;15.80;86.30
52963;DHT22;38827;53.024;6.596;2023-07-31T01:49:57;15.80;86.30
52963;DHT22;38827;53.024;6.596;2023-07-31T01:52:23;15.80;86.50
52963;DHT22;38827;53.024;6.596;2023-07-31T01:54:48;15.80;86.40
52963;DHT22;38827;53.024;6.596;2023-07-31T01:57:14;15.80;86.50
52963;DHT22;38827;53.024;6.596;2023-07-31T01:59:40;15.80;86.60
52963;DHT22;38827;53.024;6.596;2023-07-31T02:02:05;15.80;86.60
52963;DHT22;38827;53.024;6.596;2023-07-31T02:04:31;15.80;86.60
52963;DHT22;38827;53.024;6.596;2023-07-31T02:06:57;15.80;86.70
52963;DHT22;38827;53.024;6.596;2023-07-31T02:09:22;15.80;86.70
52963;DHT22;38827;53.024;6.596;2023-07-31T02:11:54;15.80;86.90
52963;DHT22;38827;53.024;6.596;2023-07-31T02:14:20;15.80;86.90
52963;DHT22;38827;53.024;6.596;2023-07-31T02:16:45;15.80;86.90
52963;DHT22;38827;53.024;6.596;2023-07-31T02:19:11;15.80;86.90
52963;DHT22;38827;53.024;6.596;2023-07-31T02:21:37;15.80;86.80
52963;DHT22;38827;53.024;6.596;2023-07-31T02:24:02;15.80;86.80
52963;DHT22;38827;53.024;6.596;2023-07-31T02:26:28;15.80;86.90
52963;DHT22;38827;53.024;6.596;2023-07-31T02:28:54;15.80;86.90
52963;DHT22;38827;53.024;6.596;2023-07-31T02:31:19;15.80;87.00
52963;DHT22;38827;53.024;6.596;2023-07-31T02:33:45;15.80;86.90
52963;DHT22;38827;53.024;6.596;2023-07-31T02:36:10;15.80;87.00
52963;DHT22;38827;53.024;6.596;2023-07-31T02:38:36;15.80;87.10
52963;DHT22;38827;53.024;6.596;2023-07-31T02:41:02;15.80;87.10
52963;DHT22;38827;53.024;6.596;2023-07-31T02:43:27;15.80;87.10
52963;DHT22;38827;53.024;6.596;2023-07-31T02:45:53;15.80;87.10
52963;DHT22;38827;53.024;6.596;2023-07-31T02:48:19;15.80;87.40
52963;DHT22;38827;53.024;6.596;2023-07-31T02:50:45;15.80;87.50
52963;DHT22;38827;53.024;6.596;2023-07-31T02:53:11;15.80;87.60
52963;DHT22;38827;53.024;6.596;2023-07-31T02:55:36;15.80;87.50
52963;DHT22;38827;53.024;6.596;2023-07-31T02:58:02;15.80;87.50
52963;DHT22;38827;53.024;6.596;2023-07-31T03:00:28;15.80;87.60
52963;DHT22;38827;53.024;6.596;2023-07-31T03:02:53;15.80;87.70
52963;DHT22;38827;53.024;6.596;2023-07-31T03:05:19;15.80;87.70
52963;DHT22;38827;53.024;6.596;2023-07-31T03:07:44;15.90;87.80
52963;DHT22;38827;53.024;6.596;2023-07-31T03:10:10;15.90;87.90
52963;DHT22;38827;53.024;6.596;2023-07-31T03:12:36;15.90;87.90
52963;DHT22;38827;53.024;6.596;2023-07-31T03:15:01;15.90;88.00
52963;DHT22;38827;53.024;6.596;2023-07-31T03:17:27;15.90;88.00
52963;DHT22;38827;53.024;6.596;2023-07-31T03:19:52;16.00;88.10
52963;DHT22;38827;53.024;6.596;2023-07-31T03:22:18;16.00;88.20
52963;DHT22;38827;53.024;6.596;2023-07-31T03:24:44;16.00;88.10
52963;DHT22;38827;53.024;6.596;2023-07-31T03:27:09;16.00;88.30
52963;DHT22;38827;53.024;6.596;2023-07-31T03:29:35;16.00;88.30
52963;DHT22;38827;53.024;6.596;2023-07-31T03:32:00;16.10;88.30
52963;DHT22;38827;53.024;6.596;2023-07-31T03:34:26;16.10;88.30
52963;DHT22;38827;53.024;6.596;2023-07-31T03:36:52;16.10;88.20
52963;DHT22;38827;53.024;6.596;2023-07-31T03:39:18;16.10;88.30
52963;DHT22;38827;53.024;6.596;2023-07-31T03:41:43;16.10;88.30
52963;DHT22;38827;53.024;6.596;2023-07-31T03:44:09;16.10;88.30
52963;DHT22;38827;53.024;6.596;2023-07-31T03:46:34;16.20;88.20
52963;DHT22;38827;53.024;6.596;2023-07-31T03:49:01;16.20;88.10
52963;DHT22;38827;53.024;6.596;2023-07-31T03:51:27;16.20;88.20
52963;DHT22;38827;53.024;6.596;2023-07-31T03:53:53;16.20;88.20
52963;DHT22;38827;53.024;6.596;2023-07-31T03:56:18;16.20;88.20
52963;DHT22;38827;53.024;6.596;2023-07-31T03:58:44;16.20;88.10
52963;DHT22;38827;53.024;6.596;2023-07-31T04:01:09;16.20;88.10
52963;DHT22;38827;53.024;6.596;2023-07-31T04:03:35;16.20;87.90
52963;DHT22;38827;53.024;6.596;2023-07-31T04:06:01;16.20;88.00
52963;DHT22;38827;53.024;6.596;2023-07-31T04:08:26;16.20;87.90
52963;DHT22;38827;53.024;6.596;2023-07-31T04:10:52;16.20;87.80
52963;DHT22;38827;53.024;6.596;2023-07-31T04:13:17;16.20;87.80
52963;DHT22;38827;53.024;6.596;2023-07-31T04:15:48;16.20;87.70
52963;DHT22;38827;53.024;6.596;2023-07-31T04:18:14;16.30;87.80
52963;DHT22;38827;53.024;6.596;2023-07-31T04:20:40;16.20;87.70
52963;DHT22;38827;53.024;6.596;2023-07-31T04:23:06;16.30;87.60
52963;DHT22;38827;53.024;6.596;2023-07-31T04:25:31;16.20;87.50
52963;DHT22;38827;53.024;6.596;2023-07-31T04:27:57;16.20;87.40
52963;DHT22;38827;53.024;6.596;2023-07-31T04:30:22;16.20;87.30
52963;DHT22;38827;53.024;6.596;2023-07-31T04:32:49;16.20;87.20
52963;DHT22;38827;53.024;6.596;2023-07-31T04:35:15;16.20;87.30
52963;DHT22;38827;53.024;6.596;2023-07-31T04:37:40;16.30;87.20
52963;DHT22;38827;53.024;6.596;2023-07-31T04:40:07;16.30;87.10
52963;DHT22;38827;53.024;6.596;2023-07-31T04:42:33;16.30;87.00
52963;DHT22;38827;53.024;6.596;2023-07-31T04:45:00;16.30;86.90
52963;DHT22;38827;53.024;6.596;2023-07-31T04:47:25;16.30;87.10
52963;DHT22;38827;53.024;6.596;2023-07-31T04:49:51;16.30;87.10
52963;DHT22;38827;53.024;6.596;2023-07-31T04:52:16;16.20;87.30
52963;DHT22;38827;53.024;6.596;2023-07-31T04:54:42;16.30;87.40
52963;DHT22;38827;53.024;6.596;2023-07-31T04:57:08;16.30;87.20
52963;DHT22;38827;53.024;6.596;2023-07-31T04:59:33;16.30;87.40
52963;DHT22;38827;53.024;6.596;2023-07-31T05:01:59;16.30;87.50
52963;DHT22;38827;53.024;6.596;2023-07-31T05:04:24;16.30;87.60
52963;DHT22;38827;53.024;6.596;2023-07-31T05:06:50;16.30;87.70
52963;DHT22;38827;53.024;6.596;2023-07-31T05:09:16;16.40;87.50
52963;DHT22;38827;53.024;6.596;2023-07-31T05:11:41;16.40;87.60
52963;DHT22;38827;53.024;6.596;2023-07-31T05:14:08;16.40;87.60
52963;DHT22;38827;53.024;6.596;2023-07-31T05:16:34;16.40;87.70
52963;DHT22;38827;53.024;6.596;2023-07-31T05:19:00;16.40;87.80
52963;DHT22;38827;53.024;6.596;2023-07-31T05:21:25;16.40;87.80
52963;DHT22;38827;53.024;6.596;2023-07-31T05:23:51;16.40;88.00
52963;DHT22;38827;53.024;6.596;2023-07-31T05:26:16;16.40;88.00
52963;DHT22;38827;53.024;6.596;2023-07-31T05:28:43;16.40;88.20
52963;DHT22;38827;53.024;6.596;2023-07-31T05:31:08;16.50;88.20
52963;DHT22;38827;53.024;6.596;2023-07-31T05:33:34;16.50;88.30
52963;DHT22;38827;53.024;6.596;2023-07-31T05:36:00;16.50;88.30
52963;DHT22;38827;53.024;6.596;2023-07-31T05:38:25;16.50;88.30
52963;DHT22;38827;53.024;6.596;2023-07-31T05:40:51;16.50;88.40
52963;DHT22;38827;53.024;6.596;2023-07-31T05:43:17;16.60;88.40
52963;DHT22;38827;53.024;6.596;2023-07-31T05:45:43;16.60;88.60
52963;DHT22;38827;53.024;6.596;2023-07-31T05:48:15;16.60;88.70
52963;DHT22;38827;53.024;6.596;2023-07-31T05:50:40;16.70;88.70
52963;DHT22;38827;53.024;6.596;2023-07-31T05:53:06;16.70;88.80
52963;DHT22;38827;53.024;6.596;2023-07-31T05:55:33;16.70;88.90
52963;DHT22;38827;53.024;6.596;2023-07-31T05:57:59;16.80;89.00
52963;DHT22;38827;53.024;6.596;2023-07-31T06:00:25;16.90;89.00
52963;DHT22;38827;53.024;6.596;2023-07-31T06:02:50;16.90;88.90
52963;DHT22;38827;53.024;6.596;2023-07-31T06:05:16;16.90;88.80
52963;DHT22;38827;53.024;6.596;2023-07-31T06:07:42;16.90;88.80
52963;DHT22;38827;53.024;6.596;2023-07-31T06:10:07;16.90;88.70
52963;DHT22;38827;53.024;6.596;2023-07-31T06:12:34;17.00;88.70
52963;DHT22;38827;53.024;6.596;2023-07-31T06:15:00;17.00;88.70
52963;DHT22;38827;53.024;6.596;2023-07-31T06:17:26;17.00;88.70
52963;DHT22;38827;53.024;6.596;2023-07-31T06:19:52;17.00;88.80
52963;DHT22;38827;53.024;6.596;2023-07-31T06:22:18;17.10;88.90
52963;DHT22;38827;53.024;6.596;2023-07-31T06:24:44;17.20;88.80
52963;DHT22;38827;53.024;6.596;2023-07-31T06:27:10;17.20;88.70
52963;DHT22;38827;53.024;6.596;2023-07-31T06:29:36;17.30;88.60
52963;DHT22;38827;53.024;6.596;2023-07-31T06:32:02;17.30;88.40
52963;DHT22;38827;53.024;6.596;2023-07-31T06:34:28;17.40;88.40
52963;DHT22;38827;53.024;6.596;2023-07-31T06:36:55;17.40;88.20
52963;DHT22;38827;53.024;6.596;2023-07-31T06:39:21;17.40;88.10
52963;DHT22;38827;53.024;6.596;2023-07-31T06:41:46;17.40;88.10
52963;DHT22;38827;53.024;6.596;2023-07-31T06:44:12;17.50;88.00
52963;DHT22;38827;53.024;6.596;2023-07-31T06:46:37;17.50;87.90
52963;DHT22;38827;53.024;6.596;2023-07-31T06:51:45;17.60;87.70
52963;DHT22;38827;53.024;6.596;2023-07-31T06:54:10;17.70;87.50
52963;DHT22;38827;53.024;6.596;2023-07-31T06:56:36;17.80;87.40
52963;DHT22;38827;53.024;6.596;2023-07-31T06:59:05;17.80;87.10
52963;DHT22;38827;53.024;6.596;2023-07-31T07:01:49;17.80;86.90
52963;DHT22;38827;53.024;6.596;2023-07-31T07:04:15;17.90;86.20
52963;DHT22;38827;53.024;6.596;2023-07-31T07:06:40;17.80;86.50
52963;DHT22;38827;53.024;6.596;2023-07-31T07:09:06;17.80;86.40
52963;DHT22;38827;53.024;6.596;2023-07-31T07:11:32;17.80;86.30
52963;DHT22;38827;53.024;6.596;2023-07-31T07:13:57;17.80;86.30
52963;DHT22;38827;53.024;6.596;2023-07-31T07:16:23;17.70;86.00
52963;DHT22;38827;53.024;6.596;2023-07-31T07:18:49;17.70;86.00
52963;DHT22;38827;53.024;6.596;2023-07-31T07:21:14;17.70;86.30
52963;DHT22;38827;53.024;6.596;2023-07-31T07:23:42;17.70;86.30
52963;DHT22;38827;53.024;6.596;2023-07-31T07:26:08;17.60;86.40
52963;DHT22;38827;53.024;6.596;2023-07-31T07:28:33;17.60;86.40
52963;DHT22;38827;53.024;6.596;2023-07-31T07:30:59;17.60;86.20
52963;DHT22;38827;53.024;6.596;2023-07-31T07:33:25;17.50;86.30
52963;DHT22;38827;53.024;6.596;2023-07-31T07:35:51;17.60;86.40
52963;DHT22;38827;53.024;6.596;2023-07-31T07:38:16;17.60;86.30
52963;DHT22;38827;53.024;6.596;2023-07-31T07:40:42;17.60;86.20
52963;DHT22;38827;53.024;6.596;2023-07-31T07:43:11;17.60;86.10
52963;DHT22;38827;53.024;6.596;2023-07-31T07:45:43;17.60;85.80
52963;DHT22;38827;53.024;6.596;2023-07-31T07:48:09;17.60;85.60
52963;DHT22;38827;53.024;6.596;2023-07-31T07:50:46;17.60;85.50
52963;DHT22;38827;53.024;6.596;2023-07-31T07:56:02;17.50;85.30
52963;DHT22;38827;53.024;6.596;2023-07-31T07:58:28;17.50;85.70
52963;DHT22;38827;53.024;6.596;2023-07-31T08:00:54;17.50;85.50
52963;DHT22;38827;53.024;6.596;2023-07-31T08:03:22;17.50;85.50
52963;DHT22;38827;53.024;6.596;2023-07-31T08:05:48;17.50;85.60
52963;DHT22;38827;53.024;6.596;2023-07-31T08:08:17;17.50;85.70
52963;DHT22;38827;53.024;6.596;2023-07-31T08:11:06;17.50;85.80
52963;DHT22;38827;53.024;6.596;2023-07-31T08:13:37;17.50;85.60
52963;DHT22;38827;53.024;6.596;2023-07-31T08:16:18;17.60;85.80
52963;DHT22;38827;53.024;6.596;2023-07-31T08:18:47;17.60;85.60
52963;DHT22;38827;53.024;6.596;2023-07-31T08:21:43;17.60;85.90
52963;DHT22;38827;53.024;6.596;2023-07-31T08:24:08;17.60;85.60
52963;DHT22;38827;53.024;6.596;2023-07-31T08:26:49;17.60;85.80
52963;DHT22;38827;53.024;6.596;2023-07-31T08:29:16;17.70;85.70
52963;DHT22;38827;53.024;6.596;2023-07-31T08:31:41;17.70;85.90
52963;DHT22;38827;53.024;6.596;2023-07-31T08:34:07;17.80;85.60
52963;DHT22;38827;53.024;6.596;2023-07-31T08:36:33;17.80;85.50
52963;DHT22;38827;53.024;6.596;2023-07-31T08:38:59;17.90;85.60
52963;DHT22;38827;53.024;6.596;2023-07-31T08:41:24;18.00;85.60
52963;DHT22;38827;53.024;6.596;2023-07-31T08:43:52;18.10;85.20
52963;DHT22;38827;53.024;6.596;2023-07-31T08:46:20;18.20;84.90
52963;DHT22;38827;53.024;6.596;2023-07-31T08:48:46;18.20;84.60
52963;DHT22;38827;53.024;6.596;2023-07-31T08:51:14;18.30;84.50
52963;DHT22;38827;53.024;6.596;2023-07-31T08:53:40;18.30;84.70
52963;DHT22;38827;53.024;6.596;2023-07-31T08:56:06;18.40;84.40
52963;DHT22;38827;53.024;6.596;2023-07-31T08:58:32;18.50;84.20
52963;DHT22;38827;53.024;6.596;2023-07-31T09:01:01;18.60;84.00
52963;DHT22;38827;53.024;6.596;2023-07-31T09:03:29;18.70;83.80
52963;DHT22;38827;53.024;6.596;2023-07-31T09:05:56;18.80;84.00
52963;DHT22;38827;53.024;6.596;2023-07-31T09:08:27;18.90;83.70
52963;DHT22;38827;53.024;6.596;2023-07-31T09:11:02;19.00;83.30
52963;DHT22;38827;53.024;6.596;2023-07-31T09:13:31;19.10;82.30
52963;DHT22;38827;53.024;6.596;2023-07-31T09:15:57;19.10;82.20
52963;DHT22;38827;53.024;6.596;2023-07-31T09:18:22;19.10;81.60
52963;DHT22;38827;53.024;6.596;2023-07-31T09:21:06;19.10;82.20
52963;DHT22;38827;53.024;6.596;2023-07-31T09:23:46;19.20;82.00
52963;DHT22;38827;53.024;6.596;2023-07-31T09:26:49;19.20;81.90
52963;DHT22;38827;53.024;6.596;2023-07-31T09:29:19;19.20;81.60
52963;DHT22;38827;53.024;6.596;2023-07-31T09:31:45;19.10;82.40
52963;DHT22;38827;53.024;6.596;2023-07-31T09:34:11;19.10;82.70
52963;DHT22;38827;53.024;6.596;2023-07-31T09:36:44;19.10;82.90
52963;DHT22;38827;53.024;6.596;2023-07-31T09:39:11;19.20;83.00
52963;DHT22;38827;53.024;6.596;2023-07-31T09:41:39;19.20;82.80
52963;DHT22;38827;53.024;6.596;2023-07-31T09:44:06;19.20;83.10
52963;DHT22;38827;53.024;6.596;2023-07-31T09:46:35;19.30;82.90
52963;DHT22;38827;53.024;6.596;2023-07-31T09:49:11;19.30;82.80
52963;DHT22;38827;53.024;6.596;2023-07-31T09:51:38;19.30;82.50
52963;DHT22;38827;53.024;6.596;2023-07-31T09:54:11;19.30;82.80
52963;DHT22;38827;53.024;6.596;2023-07-31T09:56:47;19.30;83.00
52963;DHT22;38827;53.024;6.596;2023-07-31T09:59:15;19.30;83.00
52963;DHT22;38827;53.024;6.596;2023-07-31T10:01:42;19.30;83.00
52963;DHT22;38827;53.024;6.596;2023-07-31T10:04:09;19.40;83.00
52963;DHT22;38827;53.024;6.596;2023-07-31T10:06:36;19.40;82.70
52963;DHT22;38827;53.024;6.596;2023-07-31T10:09:11;19.40;82.70
52963;DHT22;38827;53.024;6.596;2023-07-31T10:11:50;19.30;82.40
52963;DHT22;38827;53.024;6.596;2023-07-31T10:14:20;19.30;82.90
52963;DHT22;38827;53.024;6.596;2023-07-31T10:16:47;19.40;83.30
52963;DHT22;38827;53.024;6.596;2023-07-31T10:19:14;19.50;83.20
52963;DHT22;38827;53.024;6.596;2023-07-31T10:21:40;19.60;83.10
52963;DHT22;38827;53.024;6.596;2023-07-31T10:24:07;19.80;82.40
52963;DHT22;38827;53.024;6.596;2023-07-31T10:26:34;19.90;82.20
52963;DHT22;38827;53.024;6.596;2023-07-31T10:29:01;20.00;81.90
52963;DHT22;38827;53.024;6.596;2023-07-31T10:31:28;20.00;81.90
52963;DHT22;38827;53.024;6.596;2023-07-31T10:33:55;20.10;81.70
52963;DHT22;38827;53.024;6.596;2023-07-31T10:36:21;20.20;81.70
52963;DHT22;38827;53.024;6.596;2023-07-31T10:38:50;20.30;81.60
52963;DHT22;38827;53.024;6.596;2023-07-31T10:41:19;20.40;81.80
52963;DHT22;38827;53.024;6.596;2023-07-31T10:43:47;20.40;81.20
52963;DHT22;38827;53.024;6.596;2023-07-31T10:46:14;20.50;81.40
52963;DHT22;38827;53.024;6.596;2023-07-31T10:48:41;20.70;80.90
52963;DHT22;38827;53.024;6.596;2023-07-31T10:51:08;21.00;81.30
52963;DHT22;38827;53.024;6.596;2023-07-31T10:53:36;21.40;80.20
52963;DHT22;38827;53.024;6.596;2023-07-31T10:58:30;21.60;78.70
52963;DHT22;38827;53.024;6.596;2023-07-31T11:01:04;21.50;78.40
52963;DHT22;38827;53.024;6.596;2023-07-31T11:03:47;21.40;78.30
52963;DHT22;38827;53.024;6.596;2023-07-31T11:06:14;21.40;78.20
52963;DHT22;38827;53.024;6.596;2023-07-31T11:08:48;21.30;78.70
52963;DHT22;38827;53.024;6.596;2023-07-31T11:11:16;21.20;78.80
52963;DHT22;38827;53.024;6.596;2023-07-31T11:13:46;21.40;79.60
52963;DHT22;38827;53.024;6.596;2023-07-31T11:16:14;22.00;78.50
52963;DHT22;38827;53.024;6.596;2023-07-31T11:18:42;22.30;76.70
52963;DHT22;38827;53.024;6.596;2023-07-31T11:21:19;22.40;76.00
52963;DHT22;38827;53.024;6.596;2023-07-31T11:23:50;22.30;75.00
52963;DHT22;38827;53.024;6.596;2023-07-31T11:26:17;22.00;75.70
52963;DHT22;38827;53.024;6.596;2023-07-31T11:28:43;21.80;76.60
52963;DHT22;38827;53.024;6.596;2023-07-31T11:31:11;21.70;77.00
52963;DHT22;38827;53.024;6.596;2023-07-31T11:33:37;21.70;77.20
52963;DHT22;38827;53.024;6.596;2023-07-31T11:36:03;21.50;77.60
52963;DHT22;38827;53.024;6.596;2023-07-31T11:38:31;21.40;78.40
52963;DHT22;38827;53.024;6.596;2023-07-31T11:41:02;21.20;78.50
52963;DHT22;38827;53.024;6.596;2023-07-31T11:43:28;21.00;78.40
52963;DHT22;38827;53.024;6.596;2023-07-31T11:45:56;20.80;79.00
52963;DHT22;38827;53.024;6.596;2023-07-31T11:48:29;20.70;79.40
52963;DHT22;38827;53.024;6.596;2023-07-31T11:51:00;20.60;79.60
52963;DHT22;38827;53.024;6.596;2023-07-31T11:53:45;20.50;80.30
52963;DHT22;38827;53.024;6.596;2023-07-31T11:56:14;20.60;80.40
52963;DHT22;38827;53.024;6.596;2023-07-31T11:58:43;20.60;80.10
52963;DHT22;38827;53.024;6.596;2023-07-31T12:01:10;20.80;80.00
52963;DHT22;38827;53.024;6.596;2023-07-31T12:03:37;21.10;79.90
52963;DHT22;38827;53.024;6.596;2023-07-31T12:06:03;21.30;79.60
52963;DHT22;38827;53.024;6.596;2023-07-31T12:08:29;21.40;78.80
52963;DHT22;38827;53.024;6.596;2023-07-31T12:11:02;21.70;78.50
52963;DHT22;38827;53.024;6.596;2023-07-31T12:13:31;21.80;77.00
52963;DHT22;38827;53.024;6.596;2023-07-31T12:15:58;21.80;76.90
52963;DHT22;38827;53.024;6.596;2023-07-31T12:18:26;21.70;76.80
52963;DHT22;38827;53.024;6.596;2023-07-31T12:20:56;21.50;76.90
52963;DHT22;38827;53.024;6.596;2023-07-31T12:23:27;21.30;77.40
52963;DHT22;38827;53.024;6.596;2023-07-31T12:26:09;21.10;77.90
52963;DHT22;38827;53.024;6.596;2023-07-31T12:31:10;20.70;79.20
52963;DHT22;38827;53.024;6.596;2023-07-31T12:33:38;20.50;80.00
52963;DHT22;38827;53.024;6.596;2023-07-31T12:36:16;20.40;80.50
52963;DHT22;38827;53.024;6.596;2023-07-31T12:38:43;20.30;80.70
52963;DHT22;38827;53.024;6.596;2023-07-31T12:41:09;20.20;81.10
52963;DHT22;38827;53.024;6.596;2023-07-31T12:43:36;20.10;81.50
52963;DHT22;38827;53.024;6.596;2023-07-31T12:46:02;20.00;82.00
52963;DHT22;38827;53.024;6.596;2023-07-31T12:48:27;19.80;82.70
52963;DHT22;38827;53.024;6.596;2023-07-31T12:50:53;19.70;82.70
52963;DHT22;38827;53.024;6.596;2023-07-31T12:53:19;19.80;82.70
52963;DHT22;38827;53.024;6.596;2023-07-31T12:55:45;19.80;83.10
52963;DHT22;38827;53.024;6.596;2023-07-31T12:58:10;19.80;83.10
52963;DHT22;38827;53.024;6.596;2023-07-31T13:00:36;19.80;82.90
52963;DHT22;38827;53.024;6.596;2023-07-31T13:03:02;19.90;82.80
52963;DHT22;38827;53.024;6.596;2023-07-31T13:05:29;19.90;83.00
52963;DHT22;38827;53.024;6.596;2023-07-31T13:07:55;20.00;82.80
52963;DHT22;38827;53.024;6.596;2023-07-31T13:10:23;20.00;82.80
52963;DHT22;38827;53.024;6.596;2023-07-31T13:12:49;20.20;82.60
52963;DHT22;38827;53.024;6.596;2023-07-31T13:15:15;20.30;81.80
52963;DHT22;38827;53.024;6.596;2023-07-31T13:17:41;20.30;81.40
52963;DHT22;38827;53.024;6.596;2023-07-31T13:20:07;20.40;81.10
52963;DHT22;38827;53.024;6.596;2023-07-31T13:22:33;20.50;80.60
52963;DHT22;38827;53.024;6.596;2023-07-31T13:24:58;20.50;80.50
52963;DHT22;38827;53.024;6.596;2023-07-31T13:27:24;20.50;80.40
52963;DHT22;38827;53.024;6.596;2023-07-31T13:29:53;20.60;80.50
52963;DHT22;38827;53.024;6.596;2023-07-31T13:32:20;20.60;80.50
52963;DHT22;38827;53.024;6.596;2023-07-31T13:34:46;20.60;80.60
52963;DHT22;38827;53.024;6.596;2023-07-31T13:37:12;20.60;80.50
52963;DHT22;38827;53.024;6.596;2023-07-31T13:39:39;20.60;80.40
52963;DHT22;38827;53.024;6.596;2023-07-31T13:42:06;20.60;80.40
52963;DHT22;38827;53.024;6.596;2023-07-31T13:44:37;20.50;80.70
52963;DHT22;38827;53.024;6.596;2023-07-31T13:47:03;20.50;80.80
52963;DHT22;38827;53.024;6.596;2023-07-31T13:49:29;20.60;81.00
52963;DHT22;38827;53.024;6.596;2023-07-31T13:51:55;20.60;80.70
52963;DHT22;38827;53.024;6.596;2023-07-31T13:54:22;20.70;80.50
52963;DHT22;38827;53.024;6.596;2023-07-31T13:56:48;20.80;80.20
52963;DHT22;38827;53.024;6.596;2023-07-31T13:59:14;20.90;79.60
52963;DHT22;38827;53.024;6.596;2023-07-31T14:01:41;20.90;79.60
52963;DHT22;38827;53.024;6.596;2023-07-31T14:04:07;21.10;78.90
52963;DHT22;38827;53.024;6.596;2023-07-31T14:06:34;21.20;78.50
52963;DHT22;38827;53.024;6.596;2023-07-31T14:09:00;21.30;77.80
52963;DHT22;38827;53.024;6.596;2023-07-31T14:11:26;21.50;77.50
52963;DHT22;38827;53.024;6.596;2023-07-31T14:13:52;21.50;76.60
52963;DHT22;38827;53.024;6.596;2023-07-31T14:16:18;21.60;76.40
52963;DHT22;38827;53.024;6.596;2023-07-31T14:18:43;21.60;76.00
52963;DHT22;38827;53.024;6.596;2023-07-31T14:21:11;21.60;75.70
52963;DHT22;38827;53.024;6.596;2023-07-31T14:23:37;21.70;75.80
52963;DHT22;38827;53.024;6.596;2023-07-31T14:26:03;21.70;75.70
52963;DHT22;38827;53.024;6.596;2023-07-31T14:28:28;21.70;75.50
52963;DHT22;38827;53.024;6.596;2023-07-31T14:30:54;21.70;75.50
52963;DHT22;38827;53.024;6.596;2023-07-31T14:33:19;21.60;75.20
52963;DHT22;38827;53.024;6.596;2023-07-31T14:35:45;21.60;75.20
52963;DHT22;38827;53.024;6.596;2023-07-31T14:38:11;21.50;75.20
52963;DHT22;38827;53.024;6.596;2023-07-31T14:40:36;21.50;74.70
52963;DHT22;38827;53.024;6.596;2023-07-31T14:43:03;21.40;74.50
52963;DHT22;38827;53.024;6.596;2023-07-31T14:45:29;21.30;74.70
52963;DHT22;38827;53.024;6.596;2023-07-31T14:47:55;21.30;75.60
52963;DHT22;38827;53.024;6.596;2023-07-31T14:50:20;21.20;75.20
52963;DHT22;38827;53.024;6.596;2023-07-31T14:52:47;21.20;74.80
52963;DHT22;38827;53.024;6.596;2023-07-31T14:55:13;21.10;74.90
52963;DHT22;38827;53.024;6.596;2023-07-31T14:57:39;21.10;74.90
52963;DHT22;38827;53.024;6.596;2023-07-31T15:00:05;21.00;75.10
52963;DHT22;38827;53.024;6.596;2023-07-31T15:02:34;20.90;75.30
52963;DHT22;38827;53.024;6.596;2023-07-31T15:05:00;20.90;75.50
52963;DHT22;38827;53.024;6.596;2023-07-31T15:07:26;20.90;75.60
52963;DHT22;38827;53.024;6.596;2023-07-31T15:09:51;20.80;75.60
52963;DHT22;38827;53.024;6.596;2023-07-31T15:12:17;20.80;75.70
52963;DHT22;38827;53.024;6.596;2023-07-31T15:14:43;20.80;75.80
52963;DHT22;38827;53.024;6.596;2023-07-31T15:17:08;20.70;75.60
52963;DHT22;38827;53.024;6.596;2023-07-31T15:19:34;20.70;75.90
52963;DHT22;38827;53.024;6.596;2023-07-31T15:22:02;20.70;75.90
52963;DHT22;38827;53.024;6.596;2023-07-31T15:24:28;20.60;75.90
52963;DHT22;38827;53.024;6.596;2023-07-31T15:26:54;20.60;76.10
52963;DHT22;38827;53.024;6.596;2023-07-31T15:29:20;20.70;76.20
52963;DHT22;38827;53.024;6.596;2023-07-31T15:31:46;20.60;75.90
52963;DHT22;38827;53.024;6.596;2023-07-31T15:34:13;20.60;76.20
52963;DHT22;38827;53.024;6.596;2023-07-31T15:36:38;20.60;76.20
52963;DHT22;38827;53.024;6.596;2023-07-31T15:39:04;20.60;76.20
52963;DHT22;38827;53.024;6.596;2023-07-31T15:41:30;20.60;76.40
52963;DHT22;38827;53.024;6.596;2023-07-31T15:43:56;20.60;76.30